MDT,Max TemperatureF,Mean TemperatureF,Min TemperatureF,Max Dew PointF,MeanDew PointF,Min DewpointF,Max Humidity, Mean Humidity, Min Humidity, Max Sea Level PressureIn, Mean Sea Level PressureIn, Min Sea Level PressureIn, Max VisibilityMiles, Mean VisibilityMiles, Min VisibilityMiles, Max Wind SpeedMPH, Mean Wind SpeedMPH, Max Gust SpeedMPH,PrecipitationIn, CloudCover, Events, WindDirDegrees
2013-7-1,84,75,66,62,58,53,81,59,37,30.23,29.97,29.88,10,10,7,39,11,45,0.06,6,Rain-Thunderstorm,58
2013-7-2,89,77,65,62,52,44,87,55,23,30.06,29.96,29.85,10,10,4,30,9,37,T,6,Rain,39
2013-7-3,93,81,68,59,51,43,70,44,18,30.03,29.84,29.69,10,10,10,29,8,35,T,6,Rain-Thunderstorm,2
2013-7-4,96,82,67,54,49,44,59,38,17,29.78,29.71,29.63,10,10,10,17,4,23,0.00,5,,152
2013-7-5,100,88,75,50,47,42,39,28,16,29.75,29.67,29.57,10,10,10,18,7,22,0.00,3,,200
2013-7-6,101,88,75,57,51,46,50,33,16,29.88,29.65,29.55,10,10,10,16,6,22,0.00,5,Thunderstorm,343
2013-7-7,102,91,80,56,50,44,39,28,17,29.75,29.68,29.62,10,10,10,25,10,33,0.02,5,,92
2013-7-8,98,89,79,55,50,46,37,28,18,29.86,29.81,29.74,10,10,10,20,10,26,0.00,4,,89
2013-7-9,100,89,77,58,54,46,48,33,17,29.92,29.84,29.73,10,10,7,20,8,26,0.00,2,,101
2013-7-10,98,87,76,59,56,51,58,40,22,29.91,29.83,29.73,10,10,10,18,9,30,0.00,3,,149
2013-7-11,98,89,79,60,55,51,54,38,22,30.00,29.78,29.72,10,10,10,24,9,30,0.00,6,,119
2013-7-12,100,89,77,58,52,48,48,33,18,29.90,29.75,29.65,10,10,10,25,7,29,0.00,4,,54
2013-7-13,99,88,76,58,51,43,47,33,18,29.85,29.76,29.68,10,10,10,18,6,23,T,2,Rain,88
2013-7-14,101,89,77,59,51,45,50,34,17,29.89,29.73,29.60,10,10,7,23,8,28,0.15,4,Rain-Thunderstorm,190
2013-7-15,83,77,70,63,57,50,68,56,43,30.05,29.86,29.73,10,10,6,23,11,29,T,7,Rain-Thunderstorm,77
2013-7-16,86,77,67,54,51,45,63,44,25,29.99,29.94,29.86,10,10,10,18,9,23,0.00,6,,98
2013-7-17,78,73,67,61,56,53,73,60,46,30.23,30.03,29.98,10,10,10,20,12,26,0.00,6,,81
2013-7-18,76,71,65,66,63,59,87,78,69,30.23,30.03,29.95,10,10,3,15,6,18,0.35,8,Rain,51
2013-7-19,82,75,68,65,62,59,87,67,46,30.14,29.91,29.81,10,10,10,17,8,22,0.02,7,Rain,89
2013-7-20,87,78,69,64,61,57,84,62,40,29.87,29.80,29.72,10,10,10,18,6,23,T,6,Rain,142
2013-7-21,93,82,71,61,58,53,68,48,28,29.97,29.77,29.68,10,10,10,18,6,22,0.00,6,,171
2013-7-22,95,84,73,64,60,54,69,50,30,30.02,29.79,29.69,10,10,10,24,11,29,T,4,Rain-Thunderstorm,219
2013-7-23,95,84,73,63,60,57,64,47,30,29.95,29.80,29.70,10,10,10,26,12,31,0.00,5,Rain-Thunderstorm,222
2013-7-24,95,83,70,66,62,55,79,54,28,30.13,29.87,29.73,10,9,2,32,9,38,0.20,6,Rain-Thunderstorm,42
2013-7-25,89,77,64,65,63,59,93,68,43,30.21,29.98,29.88,10,9,0,26,7,36,1.52,7,Rain-Thunderstorm,328
2013-7-26,94,81,68,68,63,59,64,49,33,30.11,29.94,29.85,10,10,2,24,7,31,0.31,6,Rain,221
2013-7-27,84,76,67,65,64,62,87,68,48,30.23,29.99,29.83,10,9,2,23,9,25,0.02,6,Rain-Thunderstorm,27
2013-7-28,92,81,69,64,62,57,84,60,36,29.94,29.80,29.70,10,10,5,40,7,47,0.01,6,Rain,202
2013-7-29,97,85,73,64,57,49,73,48,22,29.86,29.82,29.77,10,10,10,21,7,24,0.00,4,,224
2013-7-30,98,88,77,65,58,52,58,41,24,30.14,29.94,29.85,10,10,1,33,8,40,0.47,5,Rain-Thunderstorm,219
2013-7-31,98,86,73,64,58,52,73,48,22,30.10,29.94,29.84,10,10,10,40,4,46,T,5,Rain-Thunderstorm,131